createdAt,value
2023-05-19T00:02:33.742Z,9.80
2023-05-19T00:05:21.097Z,9.70
2023-05-19T00:08:10.744Z,10.60
2023-05-19T00:10:58.563Z,9.85
2023-05-19T00:13:49.605Z,9.73
2023-05-19T00:16:42.250Z,9.50
2023-05-19T00:19:32.235Z,10.15
2023-05-19T00:22:19.173Z,9.90
2023-05-19T00:25:06.886Z,10.32
2023-05-19T00:27:53.701Z,10.27
2023-05-19T00:30:40.555Z,9.07
2023-05-19T00:33:27.584Z,10.45
2023-05-19T00:36:14.549Z,9.57
2023-05-19T00:39:01.458Z,9.32
2023-05-19T00:41:48.388Z,9.80
2023-05-19T00:44:40.169Z,10.23
2023-05-19T00:47:27.128Z,11.05
2023-05-19T00:50:14.025Z,10.32
2023-05-19T00:53:00.999Z,10.55
2023-05-19T00:55:48.255Z,9.70
2023-05-19T00:58:36.488Z,10.45
2023-05-19T01:01:23.519Z,9.48
2023-05-19T01:04:11.372Z,9.68
2023-05-19T01:06:58.327Z,9.23
2023-05-19T01:09:46.015Z,9.57
2023-05-19T01:12:36.436Z,9.40
2023-05-19T01:15:26.968Z,8.65
2023-05-19T01:18:18.358Z,9.43
2023-05-19T01:21:17.018Z,8.65
2023-05-19T01:24:32.356Z,8.90
2023-05-19T01:27:29.711Z,8.73
2023-05-19T01:30:16.525Z,8.18
2023-05-19T01:33:07.314Z,8.35
2023-05-19T01:35:55.694Z,8.77
2023-05-19T01:38:43.499Z,8.07
2023-05-19T01:41:32.475Z,8.38
2023-05-19T01:44:19.683Z,8.50
2023-05-19T01:47:07.285Z,8.88
2023-05-19T01:49:54.135Z,7.38
2023-05-19T01:52:41.019Z,8.88
2023-05-19T01:55:28.019Z,8.20
2023-05-19T01:58:36.194Z,7.88
2023-05-19T02:01:43.374Z,9.48
2023-05-19T02:04:31.289Z,9.73
2023-05-19T02:07:42.048Z,10.15
2023-05-19T02:10:32.994Z,8.73
2023-05-19T02:13:22.619Z,8.95
2023-05-19T02:16:11.259Z,8.65
2023-05-19T02:18:59.564Z,8.70
2023-05-19T02:21:46.562Z,8.52
2023-05-19T02:24:33.443Z,8.82
2023-05-19T02:27:20.329Z,8.63
2023-05-19T02:30:08.871Z,9.75
2023-05-19T02:32:55.778Z,9.68
2023-05-19T02:35:42.672Z,8.73
2023-05-19T02:38:29.520Z,9.45
2023-05-19T02:41:16.372Z,9.77
2023-05-19T02:44:03.442Z,9.63
2023-05-19T02:46:50.514Z,10.40
2023-05-19T02:49:37.845Z,10.10
2023-05-19T02:52:24.968Z,10.00
2023-05-19T02:55:16.969Z,9.30
2023-05-19T02:58:04.187Z,9.75
2023-05-19T03:00:51.479Z,9.52
2023-05-19T03:03:38.454Z,9.10
2023-05-19T03:06:25.388Z,8.88
2023-05-19T03:09:15.393Z,9.82
2023-05-19T03:12:04.009Z,9.18
2023-05-19T03:14:51.154Z,10.00
2023-05-19T03:17:39.243Z,9.70
2023-05-19T03:20:26.223Z,9.55
2023-05-19T03:23:14.249Z,10.23
2023-05-19T03:26:01.349Z,10.57
2023-05-19T03:28:48.184Z,8.80
2023-05-19T03:31:35.156Z,9.65
2023-05-19T03:34:22.461Z,10.25
2023-05-19T03:37:10.725Z,9.95
2023-05-19T03:39:57.601Z,10.55
2023-05-19T03:42:44.541Z,11.77
2023-05-19T03:45:31.438Z,10.43
2023-05-19T03:48:21.121Z,10.80
2023-05-19T03:51:09.018Z,12.80
2023-05-19T03:53:56.171Z,10.85
2023-05-19T03:56:43.377Z,11.25
2023-05-19T03:59:30.232Z,10.95
2023-05-19T04:02:17.140Z,11.35
2023-05-19T04:05:07.201Z,11.60
2023-05-19T04:07:54.062Z,11.52
2023-05-19T04:10:40.925Z,11.18
2023-05-19T04:13:27.962Z,11.52
2023-05-19T04:16:15.053Z,13.60
2023-05-19T04:19:02.025Z,13.07
2023-05-19T04:21:49.006Z,12.63
2023-05-19T04:24:36.178Z,11.25
2023-05-19T04:27:23.098Z,12.70
2023-05-19T04:30:10.280Z,12.18
2023-05-19T04:32:58.187Z,10.05
2023-05-19T04:35:45.216Z,11.57
2023-05-19T04:38:32.324Z,12.30
2023-05-19T04:41:19.279Z,11.82
2023-05-19T04:44:08.972Z,11.48
2023-05-19T04:46:57.846Z,10.48
2023-05-19T04:49:44.857Z,11.35
2023-05-19T04:52:32.152Z,11.55
2023-05-19T04:55:19.168Z,10.98
2023-05-19T04:58:06.423Z,11.30
2023-05-19T05:00:57.850Z,10.98
2023-05-19T05:03:44.701Z,9.80
2023-05-19T05:06:32.360Z,10.18
2023-05-19T05:09:20.167Z,9.85
2023-05-19T05:12:08.085Z,10.38
2023-05-19T05:14:55.460Z,10.85
2023-05-19T05:17:43.654Z,10.23
2023-05-19T05:20:31.478Z,10.45
2023-05-19T05:23:18.815Z,9.68
2023-05-19T05:26:16.687Z,9.73
2023-05-19T05:29:04.153Z,10.35
2023-05-19T05:31:51.155Z,9.05
2023-05-19T05:34:39.848Z,9.80
2023-05-19T05:37:26.686Z,9.75
2023-05-19T05:40:13.664Z,10.32
2023-05-19T05:43:00.639Z,9.27
2023-05-19T05:45:47.647Z,10.02
2023-05-19T05:48:35.017Z,10.35
2023-05-19T05:51:23.025Z,9.63
2023-05-19T05:54:12.201Z,10.20
2023-05-19T05:56:59.502Z,10.55
2023-05-19T05:59:47.181Z,11.93
2023-05-19T06:02:34.358Z,11.95
2023-05-19T06:05:21.556Z,11.32
2023-05-19T06:08:08.493Z,10.93
2023-05-19T06:10:55.444Z,11.52
2023-05-19T06:13:42.441Z,12.70
2023-05-19T06:16:29.477Z,12.75
2023-05-19T06:19:16.716Z,12.63
2023-05-19T06:22:03.874Z,12.70
2023-05-19T06:24:50.811Z,12.82
2023-05-19T06:27:37.650Z,13.35
2023-05-19T06:30:24.562Z,12.40
2023-05-19T06:33:11.880Z,12.30
2023-05-19T06:35:59.607Z,13.65
2023-05-19T06:38:46.551Z,12.93
2023-05-19T06:41:34.588Z,12.20
2023-05-19T06:44:22.674Z,14.10
2023-05-19T06:47:15.134Z,11.18
2023-05-19T06:50:01.999Z,12.57
2023-05-19T06:52:48.873Z,13.27
2023-05-19T06:55:41.398Z,13.35
2023-05-19T06:58:39.412Z,11.88
2023-05-19T07:01:27.992Z,12.13
2023-05-19T07:04:15.673Z,13.82
2023-05-19T07:07:03.029Z,13.27
2023-05-19T07:09:49.987Z,13.88
2023-05-19T07:12:36.815Z,12.55
2023-05-19T07:15:23.756Z,13.25
2023-05-19T07:18:10.809Z,13.07
2023-05-19T07:20:58.473Z,13.32
2023-05-19T07:23:45.506Z,10.90
2023-05-19T07:26:32.389Z,13.23
2023-05-19T07:29:19.312Z,10.57
2023-05-19T07:32:06.744Z,12.07
2023-05-19T07:34:53.640Z,12.55
2023-05-19T07:37:40.585Z,10.52
2023-05-19T07:40:27.427Z,10.93
2023-05-19T07:43:14.351Z,11.82
2023-05-19T07:46:01.253Z,10.68
2023-05-19T07:48:48.278Z,10.38
2023-05-19T07:51:35.174Z,9.80
2023-05-19T07:54:22.132Z,10.63
2023-05-19T07:57:08.960Z,11.00
2023-05-19T07:59:55.895Z,9.18
2023-05-19T08:02:42.872Z,9.85
2023-05-19T08:05:30.051Z,10.50
2023-05-19T08:08:17.119Z,9.63
2023-05-19T08:11:21.976Z,12.32
2023-05-19T08:14:09.068Z,40.92
2023-05-19T08:16:56.390Z,15.70
2023-05-19T08:19:43.540Z,15.38
2023-05-19T08:22:30.438Z,12.23
2023-05-19T08:25:17.301Z,12.18
2023-05-19T08:28:04.332Z,11.20
2023-05-19T08:30:52.523Z,12.25
2023-05-19T08:33:39.434Z,11.55
2023-05-19T08:36:26.388Z,12.60
2023-05-19T08:39:14.203Z,13.18
2023-05-19T08:42:02.363Z,12.13
2023-05-19T08:44:49.484Z,12.85
2023-05-19T08:47:36.649Z,12.68
2023-05-19T08:50:30.701Z,13.13
2023-05-19T08:53:33.303Z,13.43
2023-05-19T08:56:25.327Z,12.80
2023-05-19T08:59:14.588Z,13.52
2023-05-19T09:02:02.306Z,11.45
2023-05-19T09:04:49.453Z,12.27
2023-05-19T09:07:38.246Z,11.68
2023-05-19T09:10:26.059Z,12.15
2023-05-19T09:13:14.048Z,11.13
2023-05-19T09:16:02.067Z,11.05
2023-05-19T09:18:56.501Z,12.52
2023-05-19T09:21:45.700Z,11.27
2023-05-19T09:24:34.510Z,12.15
2023-05-19T09:27:23.494Z,11.25
2023-05-19T09:30:10.583Z,13.25
2023-05-19T09:32:57.611Z,11.57
2023-05-19T09:35:47.462Z,11.68
2023-05-19T09:38:38.526Z,12.45
2023-05-19T09:41:26.417Z,11.73
2023-05-19T09:44:35.096Z,13.15
2023-05-19T09:47:21.982Z,10.80
2023-05-19T09:50:10.994Z,11.57
2023-05-19T09:52:58.553Z,10.77
2023-05-19T09:55:45.655Z,11.43
2023-05-19T09:58:36.700Z,10.98
2023-05-19T10:01:24.529Z,11.18
2023-05-19T10:04:12.598Z,10.18
2023-05-19T10:07:00.163Z,9.95
2023-05-19T10:09:49.082Z,10.57
2023-05-19T10:12:38.006Z,9.93
2023-05-19T10:15:25.281Z,10.15
2023-05-19T10:18:12.429Z,11.30
2023-05-19T10:21:00.699Z,22.77
2023-05-19T10:23:47.584Z,10.93
2023-05-19T10:26:35.781Z,11.05
2023-05-19T10:29:28.163Z,11.13
2023-05-19T10:32:19.774Z,11.57
2023-05-19T10:35:25.670Z,10.63
2023-05-19T10:38:35.579Z,10.23
2023-05-19T10:41:40.393Z,9.38
2023-05-19T10:44:52.497Z,13.00
2023-05-19T10:47:42.549Z,9.33
2023-05-19T10:50:37.767Z,10.05
2023-05-19T10:53:31.781Z,8.52
2023-05-19T10:56:36.378Z,8.63
2023-05-19T10:59:34.653Z,9.70
2023-05-19T11:02:41.298Z,9.68
2023-05-19T11:05:29.833Z,8.98
2023-05-19T11:08:17.981Z,9.48
2023-05-19T11:11:16.501Z,8.27
2023-05-19T11:14:04.268Z,8.50
2023-05-19T11:16:53.010Z,8.52
2023-05-19T11:19:41.943Z,8.63
2023-05-19T11:22:28.867Z,7.55
2023-05-19T11:25:38.295Z,8.45
2023-05-19T11:28:26.658Z,8.40
2023-05-19T11:31:13.729Z,8.85
2023-05-19T11:34:00.946Z,8.40
2023-05-19T11:36:48.753Z,7.80
2023-05-19T11:39:35.899Z,8.25
2023-05-19T11:42:23.632Z,9.05
2023-05-19T11:45:10.678Z,8.25
2023-05-19T11:48:02.818Z,7.65
2023-05-19T11:53:38.729Z,7.50
2023-05-19T11:56:25.646Z,7.35
2023-05-19T11:59:12.642Z,7.50
2023-05-19T12:02:14.429Z,6.38
2023-05-19T12:05:01.988Z,7.65
2023-05-19T12:07:52.187Z,7.03
2023-05-19T12:10:40.576Z,6.70
2023-05-19T12:13:27.617Z,6.78
2023-05-19T12:16:14.734Z,6.15
2023-05-19T12:19:02.318Z,7.20
2023-05-19T12:21:49.520Z,7.53
2023-05-19T12:24:37.930Z,6.93
2023-05-19T12:27:26.518Z,6.93
2023-05-19T12:30:13.365Z,6.15
2023-05-19T12:33:02.153Z,7.82
2023-05-19T12:35:50.023Z,7.88
2023-05-19T12:38:39.549Z,6.80
2023-05-19T12:41:27.343Z,6.65
2023-05-19T12:44:17.559Z,7.90
2023-05-19T12:47:05.990Z,6.88
2023-05-19T12:49:57.274Z,6.50
2023-05-19T12:52:46.827Z,6.85
2023-05-19T12:55:42.934Z,7.30
2023-05-19T12:58:34.241Z,6.65
2023-05-19T13:01:22.796Z,7.45
2023-05-19T13:04:09.886Z,6.90
2023-05-19T13:06:56.821Z,6.90
2023-05-19T13:09:43.723Z,6.53
2023-05-19T13:12:30.732Z,7.28
2023-05-19T13:15:17.755Z,6.65
2023-05-19T13:18:07.187Z,6.75
2023-05-19T13:20:54.682Z,6.38
2023-05-19T13:23:41.626Z,6.57
2023-05-19T13:26:28.489Z,6.53
2023-05-19T13:29:15.414Z,6.38
2023-05-19T13:32:02.344Z,5.85
2023-05-19T13:34:49.260Z,6.07
2023-05-19T13:37:36.299Z,7.95
2023-05-19T13:40:24.210Z,5.60
2023-05-19T13:43:11.153Z,5.97
2023-05-19T13:45:58.022Z,6.22
2023-05-19T13:48:44.893Z,5.97
2023-05-19T13:51:31.874Z,6.25
2023-05-19T13:54:18.732Z,6.38
2023-05-19T13:57:06.293Z,6.55
2023-05-19T14:00:02.798Z,7.05
2023-05-19T14:02:50.889Z,6.90
2023-05-19T14:05:37.998Z,5.75
2023-05-19T14:08:24.849Z,6.30
2023-05-19T14:11:21.540Z,7.63
2023-05-19T14:14:09.916Z,6.78
2023-05-19T14:16:58.222Z,7.22
2023-05-19T14:19:45.131Z,6.63
2023-05-19T14:22:32.299Z,6.80
2023-05-19T14:25:19.182Z,6.30
2023-05-19T14:28:06.020Z,5.38
2023-05-19T14:30:53.006Z,5.95
2023-05-19T14:33:43.233Z,5.88
2023-05-19T14:36:30.155Z,5.40
2023-05-19T14:39:17.079Z,5.97
2023-05-19T14:42:04.012Z,5.82
2023-05-19T14:44:50.874Z,5.50
2023-05-19T14:47:38.010Z,6.38
2023-05-19T14:50:26.096Z,5.30
2023-05-19T14:53:14.006Z,4.85
2023-05-19T14:56:00.943Z,5.32
2023-05-19T14:58:47.785Z,4.53
2023-05-19T15:01:34.694Z,5.03
2023-05-19T15:04:21.778Z,5.35
2023-05-19T15:07:10.262Z,5.60
2023-05-19T15:09:57.955Z,4.75
2023-05-19T15:12:44.869Z,4.95
2023-05-19T15:15:32.083Z,4.53
2023-05-19T15:18:18.985Z,4.70
2023-05-19T15:21:05.969Z,5.15
2023-05-19T15:23:52.881Z,4.32
2023-05-19T15:26:39.836Z,4.55
2023-05-19T15:29:26.705Z,5.22
2023-05-19T15:32:13.652Z,4.45
2023-05-19T15:35:00.730Z,4.85
2023-05-19T15:37:47.581Z,5.35
2023-05-19T15:40:34.786Z,5.40
2023-05-19T15:43:22.197Z,4.43
2023-05-19T15:46:09.165Z,5.93
2023-05-19T15:48:56.142Z,4.93
2023-05-19T15:51:43.105Z,4.85
2023-05-19T15:54:29.979Z,5.25
2023-05-19T15:57:16.853Z,4.68
2023-05-19T16:00:03.996Z,5.10
2023-05-19T16:02:51.233Z,4.80
2023-05-19T16:05:38.217Z,4.85
2023-05-19T16:08:25.459Z,5.22
2023-05-19T16:11:12.500Z,4.85
2023-05-19T16:13:59.491Z,4.80
2023-05-19T16:16:46.674Z,4.78
2023-05-19T16:19:33.602Z,4.97
2023-05-19T16:22:24.530Z,4.78
2023-05-19T16:25:11.530Z,4.32
2023-05-19T16:27:58.540Z,4.57
2023-05-19T16:30:46.133Z,4.25
2023-05-19T16:33:33.025Z,4.68
2023-05-19T16:36:22.698Z,4.68
2023-05-19T16:39:09.608Z,4.07
2023-05-19T16:41:56.480Z,4.90
2023-05-19T16:44:43.459Z,4.57
2023-05-19T16:47:30.373Z,4.32
2023-05-19T16:50:17.415Z,4.95
2023-05-19T16:53:04.341Z,4.57
2023-05-19T16:55:51.235Z,5.15
2023-05-19T16:58:38.077Z,4.07
2023-05-19T17:01:25.017Z,5.07
2023-05-19T17:04:11.956Z,5.28
2023-05-19T17:06:58.911Z,4.97
2023-05-19T17:09:45.767Z,4.95
2023-05-19T17:12:32.787Z,5.35
2023-05-19T17:15:19.738Z,4.70
2023-05-19T17:18:06.816Z,5.05
2023-05-19T17:20:54.044Z,5.88
2023-05-19T17:23:40.983Z,5.32
2023-05-19T17:26:30.567Z,5.75
2023-05-19T17:29:17.499Z,7.57
2023-05-19T17:32:04.774Z,5.38
2023-05-19T17:34:51.749Z,5.40
2023-05-19T17:37:38.601Z,5.13
2023-05-19T17:40:25.525Z,4.25
2023-05-19T17:43:12.713Z,4.80
2023-05-19T17:46:01.051Z,5.50
2023-05-19T17:48:48.172Z,4.93
2023-05-19T17:51:35.343Z,5.10
2023-05-19T17:54:22.473Z,5.05
2023-05-19T17:57:14.680Z,5.40
2023-05-19T18:00:02.990Z,4.20
2023-05-19T18:02:50.394Z,4.72
2023-05-19T18:05:39.986Z,5.13
2023-05-19T18:08:28.421Z,4.72
2023-05-19T18:11:16.128Z,5.53
2023-05-19T18:14:03.157Z,4.50
2023-05-19T18:16:50.153Z,5.30
2023-05-19T18:19:37.080Z,5.53
2023-05-19T18:22:23.957Z,5.10
2023-05-19T18:25:10.834Z,5.60
2023-05-19T18:28:00.477Z,5.63
2023-05-19T18:30:47.349Z,5.97
2023-05-19T18:33:34.676Z,6.65
2023-05-19T18:36:21.632Z,5.10
2023-05-19T18:39:08.513Z,6.47
2023-05-19T18:41:55.472Z,5.63
2023-05-19T18:44:46.685Z,5.50
2023-05-19T18:47:33.589Z,5.88
2023-05-19T18:50:20.651Z,5.63
2023-05-19T18:53:07.555Z,5.72
2023-05-19T18:55:54.423Z,5.60
2023-05-19T18:58:41.304Z,6.03
2023-05-19T19:01:28.330Z,5.25
2023-05-19T19:04:16.635Z,6.30
2023-05-19T19:07:05.552Z,6.00
2023-05-19T19:09:52.406Z,5.13
2023-05-19T19:12:39.358Z,6.00
2023-05-19T19:15:28.295Z,5.80
2023-05-19T19:18:15.164Z,5.28
2023-05-19T19:21:06.030Z,5.95
2023-05-19T19:23:54.680Z,5.05
2023-05-19T19:26:41.591Z,5.32
2023-05-19T19:29:28.422Z,5.43
2023-05-19T19:32:15.362Z,4.93
2023-05-19T19:35:02.267Z,5.78
2023-05-19T19:37:49.191Z,5.82
2023-05-19T19:40:36.391Z,5.90
2023-05-19T19:43:23.686Z,6.28
2023-05-19T19:46:10.584Z,5.95
2023-05-19T19:49:00.633Z,6.13
2023-05-19T19:51:47.561Z,5.00
2023-05-19T19:54:34.549Z,5.80
2023-05-19T19:57:21.758Z,6.57
2023-05-19T20:00:09.269Z,6.05
2023-05-19T20:03:05.174Z,6.57
2023-05-19T20:05:55.157Z,6.65
2023-05-19T20:08:42.073Z,5.85
2023-05-19T20:11:29.016Z,6.20
2023-05-19T20:14:18.765Z,6.65
2023-05-19T20:17:05.816Z,6.43
2023-05-19T20:19:52.723Z,6.45
2023-05-19T20:22:39.682Z,7.07
2023-05-19T20:25:27.055Z,6.70
2023-05-19T20:28:13.947Z,7.53
2023-05-19T20:31:00.957Z,6.28
2023-05-19T20:33:47.950Z,6.95
2023-05-19T20:36:34.874Z,7.82
2023-05-19T20:39:21.725Z,7.07
2023-05-19T20:42:08.624Z,8.30
2023-05-19T20:44:55.793Z,7.85
2023-05-19T20:47:42.742Z,7.82
2023-05-19T20:50:29.848Z,8.43
2023-05-19T20:53:16.808Z,9.60
2023-05-19T20:56:05.254Z,7.97
2023-05-19T20:58:52.130Z,8.15
2023-05-19T21:01:39.213Z,7.88
2023-05-19T21:04:26.203Z,8.45
2023-05-19T21:07:13.204Z,7.65
2023-05-19T21:10:00.153Z,8.40
2023-05-19T21:12:47.249Z,8.68
2023-05-19T21:15:34.595Z,8.45
2023-05-19T21:18:21.502Z,7.82
2023-05-19T21:21:08.364Z,8.95
2023-05-19T21:23:55.348Z,9.95
2023-05-19T21:26:43.094Z,8.65
2023-05-19T21:29:30.052Z,9.52
2023-05-19T21:32:16.906Z,9.00
2023-05-19T21:35:04.588Z,10.77
2023-05-19T21:37:51.502Z,9.27
2023-05-19T21:40:38.422Z,8.52
2023-05-19T21:43:25.952Z,10.18
2023-05-19T21:46:12.898Z,10.20
2023-05-19T21:48:59.732Z,10.45
2023-05-19T21:51:46.567Z,10.18
2023-05-19T21:54:33.870Z,10.35
2023-05-19T21:57:20.777Z,10.45
2023-05-19T22:00:08.636Z,10.18
2023-05-19T22:02:55.643Z,9.90
2023-05-19T22:05:42.505Z,10.63
2023-05-19T22:08:29.423Z,9.85
2023-05-19T22:11:17.999Z,10.30
2023-05-19T22:14:04.944Z,10.02
2023-05-19T22:16:52.136Z,9.07
2023-05-19T22:19:39.008Z,9.70
2023-05-19T22:22:26.174Z,9.75
2023-05-19T22:25:13.143Z,9.43
2023-05-19T22:28:01.248Z,9.48
2023-05-19T22:30:48.158Z,9.43
2023-05-19T22:33:35.037Z,9.90
2023-05-19T22:36:22.054Z,10.48
2023-05-19T22:39:08.906Z,10.07
2023-05-19T22:41:55.801Z,10.35
2023-05-19T22:44:43.380Z,10.73
2023-05-19T22:47:30.361Z,11.10
2023-05-19T22:50:17.408Z,11.30
2023-05-19T22:53:04.327Z,10.93
2023-05-19T22:55:51.377Z,11.32
2023-05-19T22:58:38.325Z,11.57
2023-05-19T23:01:25.219Z,11.20
2023-05-19T23:04:12.310Z,11.23
2023-05-19T23:06:59.719Z,11.35
2023-05-19T23:09:46.893Z,11.68
2023-05-19T23:12:33.725Z,11.07
2023-05-19T23:15:20.664Z,11.02
2023-05-19T23:18:08.668Z,10.93
2023-05-19T23:20:55.744Z,11.38
2023-05-19T23:23:42.631Z,10.43
2023-05-19T23:26:29.519Z,10.48
2023-05-19T23:29:16.405Z,10.00
2023-05-19T23:32:03.487Z,11.30
2023-05-19T23:34:50.327Z,11.35
2023-05-19T23:37:37.258Z,11.38
2023-05-19T23:40:24.134Z,11.50
2023-05-19T23:43:11.168Z,10.88
2023-05-19T23:45:58.692Z,11.98
2023-05-19T23:48:45.566Z,11.88
2023-05-19T23:51:32.435Z,12.13
2023-05-19T23:54:19.280Z,11.35
2023-05-19T23:57:07.830Z,11.25
2023-05-19T23:59:54.725Z,11.73
